sensor_id;sensor_type;location;lat;lon;timestamp;P1;P2;P0
81998;PMS5003;71598;46.516;-122.928;2024-02-21T00:01:52;29;28;
81998;PMS5003;71598;46.516;-122.928;2024-02-21T00:04:17;28;27;
81998;PMS5003;71598;46.516;-122.928;2024-02-21T00:06:43;29;28;
81998;PMS5003;71598;46.516;-122.928;2024-02-21T00:09:09;27;27;
81998;PMS5003;71598;46.516;-122.928;2024-02-21T00:11:34;25;25;
81998;PMS5003;71598;46.516;-122.928;2024-02-21T00:14:00;28;27;
81998;PMS5003;71598;46.516;-122.928;2024-02-21T00:16:25;33;31;
81998;PMS5003;71598;46.516;-122.928;2024-02-21T00:18:52;31;28;
81998;PMS5003;71598;46.516;-122.928;2024-02-21T00:21:16;32;28;
81998;PMS5003;71598;46.516;-122.928;2024-02-21T00:23:43;32;32;
81998;PMS5003;71598;46.516;-122.928;2024-02-21T00:26:08;31;31;
81998;PMS5003;71598;46.516;-122.928;2024-02-21T00:28:33;28;28;
81998;PMS5003;71598;46.516;-122.928;2024-02-21T00:30:58;28;28;
81998;PMS5003;71598;46.516;-122.928;2024-02-21T00:33:25;32;31;
81998;PMS5003;71598;46.516;-122.928;2024-02-21T00:35:48;33;32;
81998;PMS5003;71598;46.516;-122.928;2024-02-21T00:38:14;31;30;
81998;PMS5003;71598;46.516;-122.928;2024-02-21T00:40:45;32;32;
81998;PMS5003;71598;46.516;-122.928;2024-02-21T00:43:05;34;33;
81998;PMS5003;71598;46.516;-122.928;2024-02-21T00:45:31;36;36;
81998;PMS5003;71598;46.516;-122.928;2024-02-21T00:47:56;34;33;
81998;PMS5003;71598;46.516;-122.928;2024-02-21T00:50:21;37;34;
81998;PMS5003;71598;46.516;-122.928;2024-02-21T00:52:46;36;36;
81998;PMS5003;71598;46.516;-122.928;2024-02-21T00:55:12;34;34;
81998;PMS5003;71598;46.516;-122.928;2024-02-21T00:57:38;37;33;
81998;PMS5003;71598;46.516;-122.928;2024-02-21T01:00:03;30;29;
81998;PMS5003;71598;46.516;-122.928;2024-02-21T01:02:29;35;34;
81998;PMS5003;71598;46.516;-122.928;2024-02-21T01:04:54;35;34;
81998;PMS5003;71598;46.516;-122.928;2024-02-21T01:07:19;39;38;
81998;PMS5003;71598;46.516;-122.928;2024-02-21T01:09:44;39;37;
81998;PMS5003;71598;46.516;-122.928;2024-02-21T01:12:09;34;33;
81998;PMS5003;71598;46.516;-122.928;2024-02-21T01:14:35;38;38;
81998;PMS5003;71598;46.516;-122.928;2024-02-21T01:17:00;41;39;
81998;PMS5003;71598;46.516;-122.928;2024-02-21T01:19:28;41;40;
81998;PMS5003;71598;46.516;-122.928;2024-02-21T01:21:52;41;39;
81998;PMS5003;71598;46.516;-122.928;2024-02-21T01:24:17;42;41;
81998;PMS5003;71598;46.516;-122.928;2024-02-21T01:26:43;37;35;
81998;PMS5003;71598;46.516;-122.928;2024-02-21T01:29:08;41;39;
81998;PMS5003;71598;46.516;-122.928;2024-02-21T01:31:33;38;35;
81998;PMS5003;71598;46.516;-122.928;2024-02-21T01:33:58;35;34;
81998;PMS5003;71598;46.516;-122.928;2024-02-21T01:36:25;40;40;
81998;PMS5003;71598;46.516;-122.928;2024-02-21T01:38:50;43;42;
81998;PMS5003;71598;46.516;-122.928;2024-02-21T01:41:16;38;37;
81998;PMS5003;71598;46.516;-122.928;2024-02-21T01:43:41;38;37;
81998;PMS5003;71598;46.516;-122.928;2024-02-21T01:46:06;46;44;
81998;PMS5003;71598;46.516;-122.928;2024-02-21T01:48:33;37;37;
81998;PMS5003;71598;46.516;-122.928;2024-02-21T01:50:57;41;40;
81998;PMS5003;71598;46.516;-122.928;2024-02-21T01:53:25;48;47;
81998;PMS5003;71598;46.516;-122.928;2024-02-21T01:55:48;45;44;
81998;PMS5003;71598;46.516;-122.928;2024-02-21T01:58:13;49;45;
81998;PMS5003;71598;46.516;-122.928;2024-02-21T02:00:38;47;46;
81998;PMS5003;71598;46.516;-122.928;2024-02-21T02:00:43;47;46;
81998;PMS5003;71598;46.516;-122.928;2024-02-21T02:03:09;40;39;
81998;PMS5003;71598;46.516;-122.928;2024-02-21T02:05:44;44;41;
81998;PMS5003;71598;46.516;-122.928;2024-02-21T02:08:01;42;41;
81998;PMS5003;71598;46.516;-122.928;2024-02-21T02:10:26;46;46;
81998;PMS5003;71598;46.516;-122.928;2024-02-21T02:12:50;49;49;
81998;PMS5003;71598;46.516;-122.928;2024-02-21T02:15:15;48;45;
81998;PMS5003;71598;46.516;-122.928;2024-02-21T02:17:41;41;41;
81998;PMS5003;71598;46.516;-122.928;2024-02-21T02:20:07;47;46;
81998;PMS5003;71598;46.516;-122.928;2024-02-21T02:22:32;47;47;
81998;PMS5003;71598;46.516;-122.928;2024-02-21T02:24:57;50;48;
81998;PMS5003;71598;46.516;-122.928;2024-02-21T02:27:22;40;40;
81998;PMS5003;71598;46.516;-122.928;2024-02-21T02:29:49;52;50;
81998;PMS5003;71598;46.516;-122.928;2024-02-21T02:32:13;43;43;
81998;PMS5003;71598;46.516;-122.928;2024-02-21T02:34:39;53;48;
81998;PMS5003;71598;46.516;-122.928;2024-02-21T02:37:05;44;43;
81998;PMS5003;71598;46.516;-122.928;2024-02-21T02:39:33;45;43;
81998;PMS5003;71598;46.516;-122.928;2024-02-21T02:41:55;46;43;
81998;PMS5003;71598;46.516;-122.928;2024-02-21T02:44:20;44;44;
81998;PMS5003;71598;46.516;-122.928;2024-02-21T02:46:46;44;43;
81998;PMS5003;71598;46.516;-122.928;2024-02-21T02:49:11;44;42;
81998;PMS5003;71598;46.516;-122.928;2024-02-21T02:51:36;44;44;
81998;PMS5003;71598;46.516;-122.928;2024-02-21T02:54:02;56;50;
81998;PMS5003;71598;46.516;-122.928;2024-02-21T02:56:28;44;43;
81998;PMS5003;71598;46.516;-122.928;2024-02-21T02:58:53;45;44;
81998;PMS5003;71598;46.516;-122.928;2024-02-21T03:01:18;44;44;
81998;PMS5003;71598;46.516;-122.928;2024-02-21T03:03:44;46;46;
81998;PMS5003;71598;46.516;-122.928;2024-02-21T03:06:09;42;41;
81998;PMS5003;71598;46.516;-122.928;2024-02-21T03:08:35;46;45;
81998;PMS5003;71598;46.516;-122.928;2024-02-21T03:11:00;45;43;
81998;PMS5003;71598;46.516;-122.928;2024-02-21T03:13:26;37;37;
81998;PMS5003;71598;46.516;-122.928;2024-02-21T03:15:51;42;41;
81998;PMS5003;71598;46.516;-122.928;2024-02-21T03:18:16;48;47;
81998;PMS5003;71598;46.516;-122.928;2024-02-21T03:20:43;37;37;
81998;PMS5003;71598;46.516;-122.928;2024-02-21T03:23:08;41;40;
81998;PMS5003;71598;46.516;-122.928;2024-02-21T03:25:33;44;42;
81998;PMS5003;71598;46.516;-122.928;2024-02-21T03:27:59;45;41;
81998;PMS5003;71598;46.516;-122.928;2024-02-21T03:30:26;41;40;
81998;PMS5003;71598;46.516;-122.928;2024-02-21T03:32:49;41;40;
81998;PMS5003;71598;46.516;-122.928;2024-02-21T03:35:15;41;40;
81998;PMS5003;71598;46.516;-122.928;2024-02-21T03:37:41;48;44;
81998;PMS5003;71598;46.516;-122.928;2024-02-21T03:40:07;43;42;
81998;PMS5003;71598;46.516;-122.928;2024-02-21T03:42:32;44;43;
81998;PMS5003;71598;46.516;-122.928;2024-02-21T03:44:58;50;49;
81998;PMS5003;71598;46.516;-122.928;2024-02-21T03:47:26;42;38;
81998;PMS5003;71598;46.516;-122.928;2024-02-21T03:49:49;48;44;
81998;PMS5003;71598;46.516;-122.928;2024-02-21T03:52:14;42;41;
81998;PMS5003;71598;46.516;-122.928;2024-02-21T03:54:39;48;47;
81998;PMS5003;71598;46.516;-122.928;2024-02-21T03:57:05;48;46;
81998;PMS5003;71598;46.516;-122.928;2024-02-21T03:59:29;42;40;
81998;PMS5003;71598;46.516;-122.928;2024-02-21T04:01:55;42;39;
81998;PMS5003;71598;46.516;-122.928;2024-02-21T04:04:21;45;43;
81998;PMS5003;71598;46.516;-122.928;2024-02-21T04:06:47;40;40;
81998;PMS5003;71598;46.516;-122.928;2024-02-21T04:09:12;46;46;
81998;PMS5003;71598;46.516;-122.928;2024-02-21T04:11:37;44;40;
81998;PMS5003;71598;46.516;-122.928;2024-02-21T04:14:02;45;44;
81998;PMS5003;71598;46.516;-122.928;2024-02-21T04:16:27;43;40;
81998;PMS5003;71598;46.516;-122.928;2024-02-21T04:18:53;40;40;
81998;PMS5003;71598;46.516;-122.928;2024-02-21T04:21:19;40;37;
81998;PMS5003;71598;46.516;-122.928;2024-02-21T04:23:44;37;37;
81998;PMS5003;71598;46.516;-122.928;2024-02-21T04:26:09;41;39;
81998;PMS5003;71598;46.516;-122.928;2024-02-21T04:28:36;38;36;
81998;PMS5003;71598;46.516;-122.928;2024-02-21T04:31:02;44;40;
81998;PMS5003;71598;46.516;-122.928;2024-02-21T04:33:26;40;38;
81998;PMS5003;71598;46.516;-122.928;2024-02-21T04:35:52;38;36;
81998;PMS5003;71598;46.516;-122.928;2024-02-21T04:38:17;36;35;
81998;PMS5003;71598;46.516;-122.928;2024-02-21T04:40:43;40;38;
81998;PMS5003;71598;46.516;-122.928;2024-02-21T04:43:08;38;36;
81998;PMS5003;71598;46.516;-122.928;2024-02-21T04:45:33;34;33;
81998;PMS5003;71598;46.516;-122.928;2024-02-21T04:47:59;35;34;
81998;PMS5003;71598;46.516;-122.928;2024-02-21T04:50:24;37;36;
81998;PMS5003;71598;46.516;-122.928;2024-02-21T04:52:49;38;37;
81998;PMS5003;71598;46.516;-122.928;2024-02-21T04:55:15;36;35;
81998;PMS5003;71598;46.516;-122.928;2024-02-21T04:57:40;40;38;
81998;PMS5003;71598;46.516;-122.928;2024-02-21T05:00:07;38;34;
81998;PMS5003;71598;46.516;-122.928;2024-02-21T05:02:31;37;36;
81998;PMS5003;71598;46.516;-122.928;2024-02-21T05:04:56;39;39;
81998;PMS5003;71598;46.516;-122.928;2024-02-21T05:07:22;36;34;
81998;PMS5003;71598;46.516;-122.928;2024-02-21T05:09:47;39;38;
81998;PMS5003;71598;46.516;-122.928;2024-02-21T05:12:13;35;32;
81998;PMS5003;71598;46.516;-122.928;2024-02-21T05:14:38;37;34;
81998;PMS5003;71598;46.516;-122.928;2024-02-21T05:17:04;31;30;
81998;PMS5003;71598;46.516;-122.928;2024-02-21T05:19:30;27;26;
81998;PMS5003;71598;46.516;-122.928;2024-02-21T05:21:56;31;31;
81998;PMS5003;71598;46.516;-122.928;2024-02-21T05:24:21;31;28;
81998;PMS5003;71598;46.516;-122.928;2024-02-21T05:26:47;32;31;
81998;PMS5003;71598;46.516;-122.928;2024-02-21T05:29:12;34;34;
81998;PMS5003;71598;46.516;-122.928;2024-02-21T05:31:56;33;31;
81998;PMS5003;71598;46.516;-122.928;2024-02-21T05:34:03;31;29;
81998;PMS5003;71598;46.516;-122.928;2024-02-21T05:36:28;30;29;
81998;PMS5003;71598;46.516;-122.928;2024-02-21T05:38:54;32;29;
81998;PMS5003;71598;46.516;-122.928;2024-02-21T05:41:19;33;29;
81998;PMS5003;71598;46.516;-122.928;2024-02-21T05:43:44;31;28;
81998;PMS5003;71598;46.516;-122.928;2024-02-21T05:46:09;30;28;
81998;PMS5003;71598;46.516;-122.928;2024-02-21T05:48:35;28;28;
81998;PMS5003;71598;46.516;-122.928;2024-02-21T05:51:01;30;29;
81998;PMS5003;71598;46.516;-122.928;2024-02-21T05:53:26;31;30;
81998;PMS5003;71598;46.516;-122.928;2024-02-21T05:55:52;26;23;
81998;PMS5003;71598;46.516;-122.928;2024-02-21T05:58:17;29;28;
81998;PMS5003;71598;46.516;-122.928;2024-02-21T06:00:43;27;26;
81998;PMS5003;71598;46.516;-122.928;2024-02-21T06:03:08;29;29;
81998;PMS5003;71598;46.516;-122.928;2024-02-21T06:05:37;29;28;
81998;PMS5003;71598;46.516;-122.928;2024-02-21T06:07:59;30;27;
81998;PMS5003;71598;46.516;-122.928;2024-02-21T06:10:24;31;28;
81998;PMS5003;71598;46.516;-122.928;2024-02-21T06:12:50;25;24;
81998;PMS5003;71598;46.516;-122.928;2024-02-21T06:15:15;27;27;
81998;PMS5003;71598;46.516;-122.928;2024-02-21T06:17:41;30;29;
81998;PMS5003;71598;46.516;-122.928;2024-02-21T06:20:07;29;29;
81998;PMS5003;71598;46.516;-122.928;2024-02-21T06:22:33;26;26;
81998;PMS5003;71598;46.516;-122.928;2024-02-21T06:24:57;28;27;
81998;PMS5003;71598;46.516;-122.928;2024-02-21T06:27:23;31;30;
81998;PMS5003;71598;46.516;-122.928;2024-02-21T06:29:48;24;24;
81998;PMS5003;71598;46.516;-122.928;2024-02-21T06:32:15;29;29;
81998;PMS5003;71598;46.516;-122.928;2024-02-21T06:34:39;27;26;
81998;PMS5003;71598;46.516;-122.928;2024-02-21T06:37:04;27;27;
81998;PMS5003;71598;46.516;-122.928;2024-02-21T06:39:30;29;27;
81998;PMS5003;71598;46.516;-122.928;2024-02-21T06:41:55;27;26;
81998;PMS5003;71598;46.516;-122.928;2024-02-21T06:44:21;30;28;
81998;PMS5003;71598;46.516;-122.928;2024-02-21T06:46:46;28;28;
81998;PMS5003;71598;46.516;-122.928;2024-02-21T06:49:12;29;28;
81998;PMS5003;71598;46.516;-122.928;2024-02-21T06:51:37;31;30;
81998;PMS5003;71598;46.516;-122.928;2024-02-21T06:54:02;32;30;
81998;PMS5003;71598;46.516;-122.928;2024-02-21T06:56:28;26;25;
81998;PMS5003;71598;46.516;-122.928;2024-02-21T06:58:54;25;24;
81998;PMS5003;71598;46.516;-122.928;2024-02-21T07:01:19;27;26;
81998;PMS5003;71598;46.516;-122.928;2024-02-21T07:03:45;28;27;
81998;PMS5003;71598;46.516;-122.928;2024-02-21T07:06:10;26;25;
81998;PMS5003;71598;46.516;-122.928;2024-02-21T07:08:36;30;29;
81998;PMS5003;71598;46.516;-122.928;2024-02-21T07:11:01;34;34;
81998;PMS5003;71598;46.516;-122.928;2024-02-21T07:13:26;29;29;
81998;PMS5003;71598;46.516;-122.928;2024-02-21T07:15:52;31;30;
81998;PMS5003;71598;46.516;-122.928;2024-02-21T07:18:17;27;26;
81998;PMS5003;71598;46.516;-122.928;2024-02-21T07:20:43;31;30;
81998;PMS5003;71598;46.516;-122.928;2024-02-21T07:23:09;30;29;
81998;PMS5003;71598;46.516;-122.928;2024-02-21T07:25:34;25;25;
81998;PMS5003;71598;46.516;-122.928;2024-02-21T07:27:59;29;27;
81998;PMS5003;71598;46.516;-122.928;2024-02-21T07:30:26;29;28;
81998;PMS5003;71598;46.516;-122.928;2024-02-21T07:32:51;26;26;
81998;PMS5003;71598;46.516;-122.928;2024-02-21T07:35:17;27;27;
81998;PMS5003;71598;46.516;-122.928;2024-02-21T07:37:41;29;28;
81998;PMS5003;71598;46.516;-122.928;2024-02-21T07:40:11;28;27;
81998;PMS5003;71598;46.516;-122.928;2024-02-21T07:42:32;26;26;
81998;PMS5003;71598;46.516;-122.928;2024-02-21T07:44:57;25;25;
81998;PMS5003;71598;46.516;-122.928;2024-02-21T07:47:22;31;31;
81998;PMS5003;71598;46.516;-122.928;2024-02-21T07:49:48;39;37;
81998;PMS5003;71598;46.516;-122.928;2024-02-21T07:52:14;38;37;
81998;PMS5003;71598;46.516;-122.928;2024-02-21T07:54:39;36;36;
81998;PMS5003;71598;46.516;-122.928;2024-02-21T07:57:06;34;30;
81998;PMS5003;71598;46.516;-122.928;2024-02-21T07:59:30;34;34;
81998;PMS5003;71598;46.516;-122.928;2024-02-21T08:01:56;33;32;
81998;PMS5003;71598;46.516;-122.928;2024-02-21T08:04:21;39;38;
81998;PMS5003;71598;46.516;-122.928;2024-02-21T08:06:50;36;36;
81998;PMS5003;71598;46.516;-122.928;2024-02-21T08:09:11;40;38;
81998;PMS5003;71598;46.516;-122.928;2024-02-21T08:11:38;40;35;
81998;PMS5003;71598;46.516;-122.928;2024-02-21T08:14:03;48;44;
81998;PMS5003;71598;46.516;-122.928;2024-02-21T08:16:29;48;44;
81998;PMS5003;71598;46.516;-122.928;2024-02-21T08:18:55;43;42;
81998;PMS5003;71598;46.516;-122.928;2024-02-21T08:21:20;45;45;
81998;PMS5003;71598;46.516;-122.928;2024-02-21T08:23:46;46;45;
81998;PMS5003;71598;46.516;-122.928;2024-02-21T08:26:12;46;46;
81998;PMS5003;71598;46.516;-122.928;2024-02-21T08:28:36;50;48;
81998;PMS5003;71598;46.516;-122.928;2024-02-21T08:31:02;60;57;
81998;PMS5003;71598;46.516;-122.928;2024-02-21T08:33:28;65;61;
81998;PMS5003;71598;46.516;-122.928;2024-02-21T08:35:52;65;64;
81998;PMS5003;71598;46.516;-122.928;2024-02-21T08:38:18;58;57;
81998;PMS5003;71598;46.516;-122.928;2024-02-21T08:40:43;68;64;
81998;PMS5003;71598;46.516;-122.928;2024-02-21T08:43:09;69;66;
81998;PMS5003;71598;46.516;-122.928;2024-02-21T08:45:34;75;73;
81998;PMS5003;71598;46.516;-122.928;2024-02-21T08:47:59;78;73;
81998;PMS5003;71598;46.516;-122.928;2024-02-21T08:50:25;87;79;
81998;PMS5003;71598;46.516;-122.928;2024-02-21T08:52:50;91;88;
81998;PMS5003;71598;46.516;-122.928;2024-02-21T08:55:17;83;80;
81998;PMS5003;71598;46.516;-122.928;2024-02-21T08:57:41;82;79;
81998;PMS5003;71598;46.516;-122.928;2024-02-21T09:00:06;91;84;
81998;PMS5003;71598;46.516;-122.928;2024-02-21T09:02:31;91;84;
81998;PMS5003;71598;46.516;-122.928;2024-02-21T09:04:56;100;98;
81998;PMS5003;71598;46.516;-122.928;2024-02-21T09:07:22;103;100;
81998;PMS5003;71598;46.516;-122.928;2024-02-21T09:09:47;104;102;
81998;PMS5003;71598;46.516;-122.928;2024-02-21T09:12:13;106;101;
81998;PMS5003;71598;46.516;-122.928;2024-02-21T09:14:38;108;102;
81998;PMS5003;71598;46.516;-122.928;2024-02-21T09:17:03;118;113;
81998;PMS5003;71598;46.516;-122.928;2024-02-21T09:19:28;121;117;
81998;PMS5003;71598;46.516;-122.928;2024-02-21T09:21:54;120;116;
81998;PMS5003;71598;46.516;-122.928;2024-02-21T09:24:19;126;122;
81998;PMS5003;71598;46.516;-122.928;2024-02-21T09:26:46;128;119;
81998;PMS5003;71598;46.516;-122.928;2024-02-21T09:29:10;138;132;
81998;PMS5003;71598;46.516;-122.928;2024-02-21T09:31:35;126;123;
81998;PMS5003;71598;46.516;-122.928;2024-02-21T09:34:01;147;134;
81998;PMS5003;71598;46.516;-122.928;2024-02-21T09:36:26;143;135;
81998;PMS5003;71598;46.516;-122.928;2024-02-21T09:38:52;140;135;
81998;PMS5003;71598;46.516;-122.928;2024-02-21T09:41:18;149;142;
81998;PMS5003;71598;46.516;-122.928;2024-02-21T09:43:42;144;137;
81998;PMS5003;71598;46.516;-122.928;2024-02-21T09:46:07;152;147;
81998;PMS5003;71598;46.516;-122.928;2024-02-21T09:48:37;149;144;
81998;PMS5003;71598;46.516;-122.928;2024-02-21T09:50:58;154;144;
81998;PMS5003;71598;46.516;-122.928;2024-02-21T09:53:24;154;150;
81998;PMS5003;71598;46.516;-122.928;2024-02-21T09:55:50;149;144;
81998;PMS5003;71598;46.516;-122.928;2024-02-21T09:58:16;162;152;
81998;PMS5003;71598;46.516;-122.928;2024-02-21T10:00:40;167;159;
81998;PMS5003;71598;46.516;-122.928;2024-02-21T10:03:05;157;152;
81998;PMS5003;71598;46.516;-122.928;2024-02-21T10:05:31;166;157;
81998;PMS5003;71598;46.516;-122.928;2024-02-21T10:07:57;166;156;
81998;PMS5003;71598;46.516;-122.928;2024-02-21T10:10:24;169;166;
81998;PMS5003;71598;46.516;-122.928;2024-02-21T10:12:49;172;167;
81998;PMS5003;71598;46.516;-122.928;2024-02-21T10:15:13;170;162;
81998;PMS5003;71598;46.516;-122.928;2024-02-21T10:17:39;167;160;
81998;PMS5003;71598;46.516;-122.928;2024-02-21T10:20:08;187;181;
81998;PMS5003;71598;46.516;-122.928;2024-02-21T10:22:30;184;175;
81998;PMS5003;71598;46.516;-122.928;2024-02-21T10:24:55;178;169;
81998;PMS5003;71598;46.516;-122.928;2024-02-21T10:27:23;195;182;
81998;PMS5003;71598;46.516;-122.928;2024-02-21T10:29:49;191;179;
81998;PMS5003;71598;46.516;-122.928;2024-02-21T10:32:13;179;172;
81998;PMS5003;71598;46.516;-122.928;2024-02-21T10:34:39;184;177;
81998;PMS5003;71598;46.516;-122.928;2024-02-21T10:37:04;188;180;
81998;PMS5003;71598;46.516;-122.928;2024-02-21T10:39:29;186;178;
81998;PMS5003;71598;46.516;-122.928;2024-02-21T10:41:54;183;172;
81998;PMS5003;71598;46.516;-122.928;2024-02-21T10:44:20;197;189;
81998;PMS5003;71598;46.516;-122.928;2024-02-21T10:46:46;196;189;
81998;PMS5003;71598;46.516;-122.928;2024-02-21T10:49:10;191;188;
81998;PMS5003;71598;46.516;-122.928;2024-02-21T10:51:37;194;183;
81998;PMS5003;71598;46.516;-122.928;2024-02-21T10:54:04;190;183;
81998;PMS5003;71598;46.516;-122.928;2024-02-21T10:56:28;197;194;
81998;PMS5003;71598;46.516;-122.928;2024-02-21T10:58:53;194;185;
81998;PMS5003;71598;46.516;-122.928;2024-02-21T11:01:18;200;190;
81998;PMS5003;71598;46.516;-122.928;2024-02-21T11:03:45;201;193;
81998;PMS5003;71598;46.516;-122.928;2024-02-21T11:06:10;213;196;
81998;PMS5003;71598;46.516;-122.928;2024-02-21T11:08:35;220;202;
81998;PMS5003;71598;46.516;-122.928;2024-02-21T11:11:00;200;194;
81998;PMS5003;71598;46.516;-122.928;2024-02-21T11:13:35;218;203;
81998;PMS5003;71598;46.516;-122.928;2024-02-21T11:15:51;202;195;
81998;PMS5003;71598;46.516;-122.928;2024-02-21T11:18:23;204;194;
81998;PMS5003;71598;46.516;-122.928;2024-02-21T11:20:49;219;206;
81998;PMS5003;71598;46.516;-122.928;2024-02-21T11:23:09;197;192;
81998;PMS5003;71598;46.516;-122.928;2024-02-21T11:25:42;205;196;
81998;PMS5003;71598;46.516;-122.928;2024-02-21T11:28:00;207;201;
81998;PMS5003;71598;46.516;-122.928;2024-02-21T11:30:27;209;199;
81998;PMS5003;71598;46.516;-122.928;2024-02-21T11:32:58;206;196;
81998;PMS5003;71598;46.516;-122.928;2024-02-21T11:35:19;213;202;
81998;PMS5003;71598;46.516;-122.928;2024-02-21T11:37:42;195;191;
81998;PMS5003;71598;46.516;-122.928;2024-02-21T11:40:07;196;184;
81998;PMS5003;71598;46.516;-122.928;2024-02-21T11:42:33;211;200;
81998;PMS5003;71598;46.516;-122.928;2024-02-21T11:44:59;200;190;
81998;PMS5003;71598;46.516;-122.928;2024-02-21T11:47:24;194;190;
81998;PMS5003;71598;46.516;-122.928;2024-02-21T11:49:49;208;190;
81998;PMS5003;71598;46.516;-122.928;2024-02-21T11:52:14;186;180;
81998;PMS5003;71598;46.516;-122.928;2024-02-21T11:54:39;192;184;
81998;PMS5003;71598;46.516;-122.928;2024-02-21T11:57:05;206;192;
81998;PMS5003;71598;46.516;-122.928;2024-02-21T11:59:30;200;191;
81998;PMS5003;71598;46.516;-122.928;2024-02-21T12:01:56;197;186;
81998;PMS5003;71598;46.516;-122.928;2024-02-21T12:04:22;192;186;
81998;PMS5003;71598;46.516;-122.928;2024-02-21T12:06:47;202;194;
81998;PMS5003;71598;46.516;-122.928;2024-02-21T12:09:14;185;177;
81998;PMS5003;71598;46.516;-122.928;2024-02-21T12:11:38;200;189;
81998;PMS5003;71598;46.516;-122.928;2024-02-21T12:14:04;203;192;
81998;PMS5003;71598;46.516;-122.928;2024-02-21T12:16:30;198;189;
81998;PMS5003;71598;46.516;-122.928;2024-02-21T12:18:55;199;189;
81998;PMS5003;71598;46.516;-122.928;2024-02-21T12:21:23;197;187;
81998;PMS5003;71598;46.516;-122.928;2024-02-21T12:23:46;198;190;
81998;PMS5003;71598;46.516;-122.928;2024-02-21T12:26:11;188;182;
81998;PMS5003;71598;46.516;-122.928;2024-02-21T12:28:37;193;179;
81998;PMS5003;71598;46.516;-122.928;2024-02-21T12:31:08;200;194;
81998;PMS5003;71598;46.516;-122.928;2024-02-21T12:33:28;197;187;
81998;PMS5003;71598;46.516;-122.928;2024-02-21T12:35:52;199;194;
81998;PMS5003;71598;46.516;-122.928;2024-02-21T12:38:18;191;180;
81998;PMS5003;71598;46.516;-122.928;2024-02-21T12:40:43;194;188;
81998;PMS5003;71598;46.516;-122.928;2024-02-21T12:43:09;203;192;
81998;PMS5003;71598;46.516;-122.928;2024-02-21T12:45:34;191;184;
81998;PMS5003;71598;46.516;-122.928;2024-02-21T12:48:00;194;180;
81998;PMS5003;71598;46.516;-122.928;2024-02-21T12:50:25;180;172;
81998;PMS5003;71598;46.516;-122.928;2024-02-21T12:52:51;183;178;
81998;PMS5003;71598;46.516;-122.928;2024-02-21T12:55:16;182;173;
81998;PMS5003;71598;46.516;-122.928;2024-02-21T12:57:41;181;169;
81998;PMS5003;71598;46.516;-122.928;2024-02-21T13:00:07;167;158;
81998;PMS5003;71598;46.516;-122.928;2024-02-21T13:02:32;181;170;
81998;PMS5003;71598;46.516;-122.928;2024-02-21T13:04:57;172;165;
81998;PMS5003;71598;46.516;-122.928;2024-02-21T13:07:23;175;165;
81998;PMS5003;71598;46.516;-122.928;2024-02-21T13:09:49;175;167;
81998;PMS5003;71598;46.516;-122.928;2024-02-21T13:12:14;180;172;
81998;PMS5003;71598;46.516;-122.928;2024-02-21T13:14:39;163;152;
81998;PMS5003;71598;46.516;-122.928;2024-02-21T13:17:05;169;164;
81998;PMS5003;71598;46.516;-122.928;2024-02-21T13:19:31;153;149;
81998;PMS5003;71598;46.516;-122.928;2024-02-21T13:21:57;159;152;
81998;PMS5003;71598;46.516;-122.928;2024-02-21T13:24:22;165;159;
81998;PMS5003;71598;46.516;-122.928;2024-02-21T13:26:47;169;163;
81998;PMS5003;71598;46.516;-122.928;2024-02-21T13:29:13;156;150;
81998;PMS5003;71598;46.516;-122.928;2024-02-21T13:31:40;166;156;
81998;PMS5003;71598;46.516;-122.928;2024-02-21T13:34:04;159;155;
81998;PMS5003;71598;46.516;-122.928;2024-02-21T13:36:30;150;146;
81998;PMS5003;71598;46.516;-122.928;2024-02-21T13:38:55;154;145;
81998;PMS5003;71598;46.516;-122.928;2024-02-21T13:41:21;146;141;
81998;PMS5003;71598;46.516;-122.928;2024-02-21T13:43:46;143;140;
81998;PMS5003;71598;46.516;-122.928;2024-02-21T13:46:11;152;141;
81998;PMS5003;71598;46.516;-122.928;2024-02-21T13:48:37;142;140;
81998;PMS5003;71598;46.516;-122.928;2024-02-21T13:51:02;140;136;
81998;PMS5003;71598;46.516;-122.928;2024-02-21T13:53:27;135;131;
81998;PMS5003;71598;46.516;-122.928;2024-02-21T13:55:53;142;137;
81998;PMS5003;71598;46.516;-122.928;2024-02-21T13:58:18;136;129;
81998;PMS5003;71598;46.516;-122.928;2024-02-21T14:00:44;125;118;
81998;PMS5003;71598;46.516;-122.928;2024-02-21T14:03:10;126;120;
81998;PMS5003;71598;46.516;-122.928;2024-02-21T14:05:35;127;120;
81998;PMS5003;71598;46.516;-122.928;2024-02-21T14:08:00;123;119;
81998;PMS5003;71598;46.516;-122.928;2024-02-21T14:10:27;126;121;
81998;PMS5003;71598;46.516;-122.928;2024-02-21T14:12:51;115;109;
81998;PMS5003;71598;46.516;-122.928;2024-02-21T14:15:17;118;113;
81998;PMS5003;71598;46.516;-122.928;2024-02-21T14:17:42;115;106;
81998;PMS5003;71598;46.516;-122.928;2024-02-21T14:20:08;110;105;
81998;PMS5003;71598;46.516;-122.928;2024-02-21T14:22:33;106;105;
81998;PMS5003;71598;46.516;-122.928;2024-02-21T14:24:59;108;104;
81998;PMS5003;71598;46.516;-122.928;2024-02-21T14:27:24;97;95;
81998;PMS5003;71598;46.516;-122.928;2024-02-21T14:29:49;108;103;
81998;PMS5003;71598;46.516;-122.928;2024-02-21T14:32:16;107;98;
81998;PMS5003;71598;46.516;-122.928;2024-02-21T14:34:40;100;96;
81998;PMS5003;71598;46.516;-122.928;2024-02-21T14:37:07;97;94;
81998;PMS5003;71598;46.516;-122.928;2024-02-21T14:39:32;97;90;
81998;PMS5003;71598;46.516;-122.928;2024-02-21T14:41:57;97;95;
81998;PMS5003;71598;46.516;-122.928;2024-02-21T14:44:22;94;91;
81998;PMS5003;71598;46.516;-122.928;2024-02-21T14:46:47;95;92;
81998;PMS5003;71598;46.516;-122.928;2024-02-21T14:49:13;84;82;
81998;PMS5003;71598;46.516;-122.928;2024-02-21T14:51:39;85;82;
81998;PMS5003;71598;46.516;-122.928;2024-02-21T14:54:04;86;81;
81998;PMS5003;71598;46.516;-122.928;2024-02-21T14:56:30;84;81;
81998;PMS5003;71598;46.516;-122.928;2024-02-21T14:58:55;90;86;
81998;PMS5003;71598;46.516;-122.928;2024-02-21T15:01:20;90;86;
81998;PMS5003;71598;46.516;-122.928;2024-02-21T15:03:46;78;76;
81998;PMS5003;71598;46.516;-122.928;2024-02-21T15:06:11;85;81;